createdAt,value
2022-09-15T00:00:35.325Z,99596.25
2022-09-15T00:03:29.138Z,99593.19
2022-09-15T00:06:01.206Z,99592.16
2022-09-15T00:08:36.083Z,99597.84
2022-09-15T00:11:11.422Z,99595.44
2022-09-15T00:13:43.453Z,99585.72
2022-09-15T00:16:15.863Z,99590.16
2022-09-15T00:18:49.758Z,99584.63
2022-09-15T00:21:23.483Z,99584.16
2022-09-15T00:23:59.219Z,99577.38
2022-09-15T00:26:32.843Z,99580.09
2022-09-15T00:29:06.160Z,99576.78
2022-09-15T00:31:36.859Z,99570.47
2022-09-15T00:34:07.328Z,99569.44
2022-09-15T00:36:37.561Z,99572.13
2022-09-15T00:39:10.288Z,99569.00
2022-09-15T00:41:41.795Z,99572.34
2022-09-15T00:44:41.431Z,99570.56
2022-09-15T00:47:20.006Z,99583.38
2022-09-15T00:49:58.417Z,99578.75
2022-09-15T00:56:21.692Z,99583.69
2022-09-15T00:58:57.619Z,99581.88
2022-09-15T01:01:30.307Z,99587.00
2022-09-15T01:04:01.816Z,99587.47
2022-09-15T01:06:35.902Z,99583.28
2022-09-15T01:09:11.975Z,99583.19
2022-09-15T01:11:45.506Z,99577.06
2022-09-15T01:14:15.871Z,99576.84
2022-09-15T01:17:03.878Z,99575.91
2022-09-15T01:20:04.592Z,99573.66
2022-09-15T01:22:39.819Z,99571.31
2022-09-15T01:25:12.799Z,99582.00
2022-09-15T01:28:19.905Z,99581.34
2022-09-15T01:31:01.926Z,99588.19
2022-09-15T01:33:37.410Z,99594.75
2022-09-15T01:36:16.444Z,99600.25
2022-09-15T01:39:00.909Z,99595.78
2022-09-15T01:41:36.959Z,99597.25
2022-09-15T01:44:09.570Z,99588.66
2022-09-15T01:46:50.832Z,99593.25
2022-09-15T01:49:41.724Z,99594.03
2022-09-15T01:52:19.390Z,99584.66
2022-09-15T01:54:53.694Z,99593.06
2022-09-15T01:57:24.624Z,99591.59
2022-09-15T01:59:57.937Z,99578.53
2022-09-15T02:02:35.752Z,99586.69
2022-09-15T02:05:11.383Z,99582.81
2022-09-15T02:07:47.957Z,99577.31
2022-09-15T02:10:24.774Z,99574.66
2022-09-15T02:12:59.869Z,99587.50
2022-09-15T02:15:33.426Z,99587.69
2022-09-15T02:18:10.418Z,99581.16
2022-09-15T02:20:49.421Z,99588.13
2022-09-15T02:23:28.729Z,99593.00
2022-09-15T02:26:05.732Z,99582.19
2022-09-15T02:28:39.456Z,99576.06
2022-09-15T02:31:12.873Z,99592.41
2022-09-15T02:33:50.064Z,99591.38
2022-09-15T02:36:23.245Z,99578.34
2022-09-15T02:38:58.477Z,99576.50
2022-09-15T02:41:29.329Z,99578.75
2022-09-15T02:43:59.437Z,99576.06
2022-09-15T02:46:29.144Z,99566.69
2022-09-15T02:49:01.476Z,99567.72
2022-09-15T02:51:31.539Z,99584.88
2022-09-15T02:54:01.255Z,99589.75
2022-09-15T02:56:31.070Z,99588.72
2022-09-15T02:59:01.588Z,99592.75
2022-09-15T03:01:34.797Z,99594.19
2022-09-15T03:04:08.284Z,99600.53
2022-09-15T03:06:37.993Z,99593.34
2022-09-15T03:09:10.408Z,99594.38
2022-09-15T03:11:40.395Z,99592.13
2022-09-15T03:14:10.522Z,99589.94
2022-09-15T03:16:40.425Z,99589.75
2022-09-15T03:19:12.842Z,99592.19
2022-09-15T03:21:42.852Z,99585.47
2022-09-15T03:24:15.333Z,99587.50
2022-09-15T03:26:45.376Z,99587.31
2022-09-15T03:29:15.684Z,99586.47
2022-09-15T03:31:45.451Z,99592.00
2022-09-15T03:34:18.449Z,99592.41
2022-09-15T03:36:48.213Z,99586.88
2022-09-15T03:39:18.455Z,99586.69
2022-09-15T03:41:48.166Z,99586.28
2022-09-15T03:44:18.019Z,99594.06
2022-09-15T03:46:48.307Z,99590.16
2022-09-15T03:49:20.670Z,99580.75
2022-09-15T03:51:50.706Z,99587.69
2022-09-15T03:54:21.031Z,99585.44
2022-09-15T03:56:52.068Z,99585.22
2022-09-15T03:59:23.211Z,99581.56
2022-09-15T04:01:53.266Z,99578.53
2022-09-15T04:04:25.689Z,99579.13
2022-09-15T04:06:56.040Z,99580.13
2022-09-15T04:09:25.888Z,99587.28
2022-09-15T04:11:55.885Z,99582.97
2022-09-15T04:14:26.288Z,99587.25
2022-09-15T04:20:46.629Z,99592.53
2022-09-15T04:23:16.737Z,99582.34
2022-09-15T04:25:47.161Z,99581.50
2022-09-15T04:28:17.307Z,99580.94
2022-09-15T04:30:48.186Z,99593.16
2022-09-15T04:33:18.361Z,99596.75
2022-09-15T04:35:50.962Z,99592.00
2022-09-15T04:38:21.328Z,99589.75
2022-09-15T04:40:51.190Z,99587.50
2022-09-15T04:43:21.153Z,99593.25
2022-09-15T04:45:51.239Z,99590.00
2022-09-15T04:48:21.194Z,99588.56
2022-09-15T04:50:53.656Z,99587.28
2022-09-15T04:54:29.307Z,99586.50
2022-09-15T04:57:34.288Z,99586.09
2022-09-15T05:00:07.570Z,99591.31
2022-09-15T05:02:37.573Z,99583.00
2022-09-15T05:05:08.928Z,99591.78
2022-09-15T05:07:41.387Z,99589.22
2022-09-15T05:10:13.173Z,99592.94
2022-09-15T05:19:57.394Z,99584.66
2022-09-15T05:22:27.822Z,99590.41
2022-09-15T05:25:00.364Z,99595.00
2022-09-15T05:27:33.798Z,99591.19
2022-09-15T05:30:31.723Z,99594.41
2022-09-15T05:32:53.693Z,99587.66
2022-09-15T05:35:23.514Z,99592.34
2022-09-15T05:37:53.245Z,99594.00
2022-09-15T05:40:25.900Z,99594.69
2022-09-15T05:42:55.640Z,99588.09
2022-09-15T05:45:25.768Z,99587.72
2022-09-15T05:47:55.504Z,99584.97
2022-09-15T05:50:26.671Z,99587.22
2022-09-15T05:52:57.861Z,99586.81
2022-09-15T05:55:30.208Z,99586.69
2022-09-15T05:58:00.294Z,99578.94
2022-09-15T06:00:30.125Z,99585.84
2022-09-15T06:02:59.901Z,99588.31
2022-09-15T06:05:30.718Z,99585.31
2022-09-15T06:08:00.581Z,99588.38
2022-09-15T06:10:32.964Z,99599.72
2022-09-15T06:13:03.163Z,99602.13
2022-09-15T06:15:34.274Z,99604.88
2022-09-15T06:18:04.701Z,99608.78
2022-09-15T06:20:34.479Z,99608.28
2022-09-15T06:23:04.722Z,99602.84
2022-09-15T06:25:40.541Z,99608.19
2022-09-15T06:28:11.086Z,99602.88
2022-09-15T06:30:42.246Z,99609.06
2022-09-15T06:33:12.329Z,99606.25
2022-09-15T06:35:42.975Z,99608.75
2022-09-15T06:38:16.024Z,99600.56
2022-09-15T06:44:53.606Z,99597.06
2022-09-15T06:47:24.148Z,99598.09
2022-09-15T06:49:55.741Z,99594.22
2022-09-15T06:52:25.786Z,99594.44
2022-09-15T06:54:55.557Z,99592.59
2022-09-15T06:57:25.326Z,99608.78
2022-09-15T06:59:57.964Z,99600.38
2022-09-15T07:02:27.833Z,99606.88
2022-09-15T07:04:58.070Z,99603.78
2022-09-15T07:07:27.915Z,99596.69
2022-09-15T07:09:57.640Z,99615.50
2022-09-15T07:12:27.682Z,99599.56
2022-09-15T07:15:00.071Z,99596.09
2022-09-15T07:17:31.835Z,99601.59
2022-09-15T07:20:02.277Z,99608.72
2022-09-15T07:22:32.336Z,99610.34
2022-09-15T07:25:02.150Z,99613.84
2022-09-15T07:27:31.989Z,99623.41
2022-09-15T07:30:08.587Z,99621.84
2022-09-15T07:32:38.405Z,99621.41
2022-09-15T07:35:09.023Z,99621.38
2022-09-15T07:37:38.860Z,99622.53
2022-09-15T07:40:11.070Z,99636.59
2022-09-15T07:42:45.001Z,99635.72
2022-09-15T07:45:17.724Z,99638.47
2022-09-15T07:47:47.463Z,99638.50
2022-09-15T07:50:17.651Z,99641.22
2022-09-15T07:52:47.421Z,99642.22
2022-09-15T07:55:18.377Z,99643.38
2022-09-15T07:57:48.421Z,99647.69
2022-09-15T08:00:21.162Z,99655.59
2022-09-15T08:02:51.251Z,99657.94
2022-09-15T08:05:21.054Z,99659.75
2022-09-15T08:07:50.837Z,99660.59
2022-09-15T08:10:21.371Z,99658.72
2022-09-15T08:12:51.191Z,99655.22
2022-09-15T08:15:24.244Z,99649.94
2022-09-15T08:17:54.829Z,99651.69
2022-09-15T08:20:24.644Z,99656.31
2022-09-15T08:22:55.678Z,99649.91
2022-09-15T08:25:25.849Z,99657.91
2022-09-15T08:27:56.485Z,99656.56
2022-09-15T08:30:29.567Z,99655.09
2022-09-15T08:32:59.407Z,99653.09
2022-09-15T08:35:29.570Z,99660.97
2022-09-15T08:37:59.831Z,99656.97
2022-09-15T08:40:37.583Z,99664.09
2022-09-15T08:43:18.650Z,99665.22
2022-09-15T08:45:57.387Z,99652.59
2022-09-15T08:48:32.074Z,99663.84
2022-09-15T08:51:06.321Z,99655.16
2022-09-15T08:53:40.607Z,99660.94
2022-09-15T08:56:17.622Z,99661.38
2022-09-15T08:58:48.700Z,99657.88
2022-09-15T09:01:38.643Z,99663.06
2022-09-15T09:04:27.529Z,99671.03
2022-09-15T09:07:09.991Z,99664.63
2022-09-15T09:09:48.245Z,99662.56
2022-09-15T09:12:32.395Z,99676.41
2022-09-15T09:15:17.578Z,99657.88
2022-09-15T09:18:09.046Z,99679.50
2022-09-15T09:20:50.542Z,99665.94
2022-09-15T09:23:26.475Z,99668.69
2022-09-15T09:25:58.799Z,99687.31
2022-09-15T09:28:34.118Z,99668.59
2022-09-15T09:31:08.452Z,99668.41
2022-09-15T09:33:48.152Z,99666.06
2022-09-15T09:36:18.920Z,99662.38
2022-09-15T09:38:50.644Z,99657.09
2022-09-15T09:41:26.827Z,99656.50
2022-09-15T09:43:58.687Z,99651.56
2022-09-15T09:46:29.035Z,99656.94
2022-09-15T09:49:05.873Z,99655.63
2022-09-15T09:51:39.922Z,99662.28
2022-09-15T09:54:15.433Z,99660.31
2022-09-15T09:56:53.377Z,99661.88
2022-09-15T09:59:48.183Z,99660.84
2022-09-15T10:02:50.394Z,99652.28
2022-09-15T10:05:23.786Z,99664.19
2022-09-15T10:07:53.769Z,99673.72
2022-09-15T10:10:28.731Z,99664.88
2022-09-15T10:12:59.569Z,99653.78
2022-09-15T10:15:34.006Z,99672.53
2022-09-15T10:18:05.250Z,99656.25
2022-09-15T10:20:49.742Z,99661.19
2022-09-15T10:23:28.703Z,99648.53
2022-09-15T10:26:19.980Z,99654.44
2022-09-15T10:29:15.946Z,99649.75
2022-09-15T10:31:47.715Z,99646.84
2022-09-15T10:34:33.147Z,99658.13
2022-09-15T10:37:15.834Z,99657.31
2022-09-15T10:39:54.524Z,99661.94
2022-09-15T10:42:39.324Z,99665.34
2022-09-15T10:45:20.201Z,99656.16
2022-09-15T10:48:07.185Z,99662.84
2022-09-15T10:50:51.406Z,99661.22
2022-09-15T10:53:38.184Z,99649.06
2022-09-15T10:56:19.719Z,99636.44
2022-09-15T10:59:00.970Z,99632.53
2022-09-15T11:01:48.340Z,99644.22
2022-09-15T11:04:35.493Z,99642.16
2022-09-15T11:07:12.267Z,99641.91
2022-09-15T11:09:50.911Z,99642.75
2022-09-15T11:12:34.687Z,99640.66
2022-09-15T11:15:18.995Z,99637.69
2022-09-15T11:18:03.761Z,99639.88
2022-09-15T11:20:45.953Z,99646.19
2022-09-15T11:23:21.636Z,99640.97
2022-09-15T11:26:00.911Z,99629.22
2022-09-15T11:28:36.949Z,99622.81
2022-09-15T11:31:14.323Z,99628.94
2022-09-15T11:33:49.914Z,99631.19
2022-09-15T11:36:24.939Z,99624.72
2022-09-15T11:38:59.358Z,99632.44
2022-09-15T11:41:39.021Z,99629.31
2022-09-15T11:44:17.657Z,99634.09
2022-09-15T11:47:09.583Z,99628.88
2022-09-15T11:50:15.666Z,99634.25
2022-09-15T11:53:11.516Z,99633.59
2022-09-15T11:55:46.261Z,99634.31
2022-09-15T11:58:26.811Z,99633.88
2022-09-15T12:01:01.641Z,99646.34
2022-09-15T12:03:38.241Z,99632.91
2022-09-15T12:06:14.693Z,99643.53
2022-09-15T12:08:51.827Z,99655.31
2022-09-15T12:11:24.979Z,99638.38
2022-09-15T12:13:59.671Z,99638.56
2022-09-15T12:16:30.844Z,99647.03
2022-09-15T12:19:08.796Z,99645.28
2022-09-15T12:21:48.640Z,99644.78
2022-09-15T12:24:26.127Z,99641.78
2022-09-15T12:26:56.375Z,99636.06
2022-09-15T12:29:42.222Z,99641.78
2022-09-15T12:32:24.702Z,99631.41
2022-09-15T12:35:00.537Z,99638.91
2022-09-15T12:37:39.794Z,99638.59
2022-09-15T12:40:42.216Z,99644.56
2022-09-15T12:43:31.850Z,99644.22
2022-09-15T12:46:20.726Z,99640.66
2022-09-15T12:48:54.008Z,99643.19
2022-09-15T12:51:29.998Z,99643.06
2022-09-15T12:54:04.735Z,99644.50
2022-09-15T12:56:37.760Z,99637.97
2022-09-15T12:59:09.630Z,99641.81
2022-09-15T13:01:53.081Z,99636.97
2022-09-15T13:04:52.101Z,99633.75
2022-09-15T13:07:36.520Z,99638.69
2022-09-15T13:10:33.423Z,99639.34
2022-09-15T13:13:21.286Z,99629.50
2022-09-15T13:15:57.814Z,99627.06
2022-09-15T13:18:33.659Z,99633.19
2022-09-15T13:21:20.179Z,99630.38
2022-09-15T13:23:55.925Z,99649.13
2022-09-15T13:26:30.496Z,99647.28
2022-09-15T13:29:01.124Z,99627.50
2022-09-15T13:31:41.577Z,99629.75
2022-09-15T13:35:10.106Z,99622.97
2022-09-15T13:38:21.190Z,99638.56
2022-09-15T13:41:16.903Z,99619.78
2022-09-15T13:44:12.745Z,99624.75
2022-09-15T13:46:56.167Z,99617.44
2022-09-15T13:49:51.679Z,99625.47
2022-09-15T13:52:32.630Z,99623.97
2022-09-15T13:55:28.176Z,99612.41
2022-09-15T14:00:58.459Z,99601.84
2022-09-15T14:03:37.190Z,99609.28
2022-09-15T14:06:16.855Z,99604.13
2022-09-15T14:08:51.496Z,99602.88
2022-09-15T14:11:27.276Z,99605.00
2022-09-15T14:13:59.358Z,99601.25
2022-09-15T14:16:36.579Z,99605.31
2022-09-15T14:19:27.662Z,99598.63
2022-09-15T14:22:00.279Z,99602.38
2022-09-15T14:24:33.035Z,99598.91
2022-09-15T14:27:10.041Z,99607.09
2022-09-15T14:29:43.921Z,99611.34
2022-09-15T14:35:20.451Z,99601.31
2022-09-15T14:37:58.118Z,99620.59
2022-09-15T14:40:31.917Z,99603.31
2022-09-15T14:43:03.064Z,99586.84
2022-09-15T14:48:31.663Z,99613.47
2022-09-15T14:51:05.278Z,99608.91
2022-09-15T14:53:41.904Z,99612.06
2022-09-15T14:56:19.995Z,99607.41
2022-09-15T14:58:53.615Z,99599.91
2022-09-15T15:01:26.702Z,99592.00
2022-09-15T15:04:06.103Z,99595.97
2022-09-15T15:06:40.869Z,99593.75
2022-09-15T15:09:22.601Z,99593.59
2022-09-15T15:11:55.724Z,99602.16
2022-09-15T15:28:46.206Z,99615.22
2022-09-15T15:31:19.190Z,99613.53
2022-09-15T15:33:50.803Z,99608.75
2022-09-15T15:36:24.885Z,99607.16
2022-09-15T15:38:57.049Z,99613.16
2022-09-15T15:41:29.723Z,99617.59
2022-09-15T15:44:08.316Z,99619.13
2022-09-15T15:46:54.297Z,99619.81
2022-09-15T15:49:29.416Z,99627.72
2022-09-15T15:52:00.732Z,99617.03
2022-09-15T15:54:31.007Z,99626.94
2022-09-15T15:57:22.953Z,99627.88
2022-09-15T15:59:58.863Z,99624.75
2022-09-15T16:02:30.123Z,99631.25
2022-09-15T16:05:00.207Z,99642.81
2022-09-15T16:07:33.478Z,99653.84
2022-09-15T16:10:04.537Z,99647.47
2022-09-15T16:12:35.556Z,99658.16
2022-09-15T16:15:13.999Z,99655.97
2022-09-15T16:17:47.023Z,99649.25
2022-09-15T16:20:19.809Z,99650.03
2022-09-15T16:22:50.594Z,99649.63
2022-09-15T16:25:35.812Z,99646.78
2022-09-15T16:28:06.952Z,99646.22
2022-09-15T16:30:40.072Z,99652.97
2022-09-15T16:33:12.978Z,99649.38
2022-09-15T16:35:49.557Z,99648.69
2022-09-15T16:38:20.639Z,99648.91
2022-09-15T16:40:52.018Z,99652.16
2022-09-15T16:43:24.273Z,99657.47
2022-09-15T16:45:57.155Z,99650.59
2022-09-15T16:48:30.070Z,99653.75
2022-09-15T16:51:20.894Z,99651.41
2022-09-15T16:53:53.826Z,99661.81
2022-09-15T16:56:23.948Z,99661.75
2022-09-15T16:58:59.562Z,99661.22
2022-09-15T17:01:43.185Z,99654.84
2022-09-15T17:04:19.238Z,99655.66
2022-09-15T17:06:49.137Z,99647.69
2022-09-15T17:09:20.667Z,99651.88
2022-09-15T17:11:50.494Z,99647.72
2022-09-15T17:14:20.587Z,99656.56
2022-09-15T17:16:52.855Z,99654.06
2022-09-15T17:19:25.506Z,99662.78
2022-09-15T17:21:55.327Z,99659.75
2022-09-15T17:24:25.868Z,99665.03
2022-09-15T17:26:56.100Z,99669.84
2022-09-15T17:29:26.801Z,99662.19
2022-09-15T17:31:56.877Z,99684.22
2022-09-15T17:34:29.679Z,99659.97
2022-09-15T17:36:59.525Z,99672.03
2022-09-15T17:39:29.612Z,99670.66
2022-09-15T17:41:59.467Z,99669.78
2022-09-15T17:44:30.596Z,99677.09
2022-09-15T17:51:01.704Z,99678.75
2022-09-15T17:53:31.899Z,99664.44
2022-09-15T17:56:01.727Z,99674.81
2022-09-15T17:58:31.965Z,99672.47
2022-09-15T18:01:02.111Z,99672.34
2022-09-15T18:03:35.008Z,99675.25
2022-09-15T18:06:10.640Z,99667.03
2022-09-15T18:08:40.531Z,99682.91
2022-09-15T18:11:10.908Z,99680.47
2022-09-15T18:13:40.879Z,99683.81
2022-09-15T18:16:14.995Z,99676.75
2022-09-15T18:18:45.274Z,99682.47
2022-09-15T18:24:48.641Z,99696.31
2022-09-15T18:27:18.863Z,99686.19
2022-09-15T18:29:48.865Z,99695.06
2022-09-15T18:32:19.135Z,99687.94
2022-09-15T18:34:49.154Z,99686.03
2022-09-15T18:37:19.867Z,99692.38
2022-09-15T18:39:53.168Z,99695.38
2022-09-15T18:45:40.167Z,99703.25
2022-09-15T18:50:52.962Z,99720.66
2022-09-15T18:53:28.668Z,99713.44
2022-09-15T18:56:01.282Z,99719.28
2022-09-15T18:58:31.842Z,99713.25
2022-09-15T19:01:02.402Z,99716.03
2022-09-15T19:03:33.081Z,99713.03
2022-09-15T19:13:37.587Z,99707.94
2022-09-15T19:16:09.379Z,99707.69
2022-09-15T19:18:39.998Z,99714.16
2022-09-15T19:21:12.915Z,99710.63
2022-09-15T19:23:42.987Z,99711.16
2022-09-15T19:26:16.982Z,99714.75
2022-09-15T19:28:53.538Z,99714.88
2022-09-15T19:31:24.128Z,99714.59
2022-09-15T19:33:54.868Z,99716.09
2022-09-15T19:36:29.187Z,99710.56
2022-09-15T19:39:00.317Z,99714.25
2022-09-15T19:41:30.560Z,99714.41
2022-09-15T19:44:03.801Z,99713.81
2022-09-15T19:46:33.942Z,99713.03
2022-09-15T19:49:04.689Z,99718.56
2022-09-15T19:51:34.963Z,99716.34
2022-09-15T19:54:04.988Z,99714.94
2022-09-15T19:56:35.013Z,99721.50
2022-09-15T19:59:08.625Z,99719.88
2022-09-15T20:01:38.661Z,99722.75
2022-09-15T20:07:33.836Z,99713.13
2022-09-15T20:10:04.098Z,99716.00
2022-09-15T20:12:34.353Z,99710.66
2022-09-15T20:15:07.558Z,99711.44
2022-09-15T20:17:41.711Z,99716.16
2022-09-15T20:20:13.614Z,99718.22
2022-09-15T20:22:44.066Z,99723.53
2022-09-15T20:25:14.135Z,99721.47
2022-09-15T20:27:44.821Z,99725.91
2022-09-15T20:30:17.832Z,99732.31
2022-09-15T20:32:47.952Z,99734.38
2022-09-15T20:35:18.034Z,99740.28
2022-09-15T20:44:40.332Z,99735.38
2022-09-15T20:47:13.083Z,99737.03
2022-09-15T20:49:42.941Z,99730.66
2022-09-15T20:52:13.105Z,99734.34
2022-09-15T20:54:43.286Z,99731.69
2022-09-15T20:57:13.636Z,99735.97
2022-09-15T20:59:43.742Z,99733.94
2022-09-15T21:02:16.259Z,99734.78
2022-09-15T21:04:46.846Z,99735.00
2022-09-15T21:07:17.481Z,99737.44
2022-09-15T21:09:47.511Z,99743.97
2022-09-15T21:16:00.893Z,99740.69
2022-09-15T21:18:36.039Z,99736.22
2022-09-15T21:21:08.796Z,99742.53
2022-09-15T21:23:42.896Z,99736.00
2022-09-15T21:26:15.512Z,99732.13
2022-09-15T21:28:46.140Z,99736.81
2022-09-15T21:31:19.082Z,99736.81
2022-09-15T21:33:52.154Z,99738.66
2022-09-15T21:36:27.656Z,99740.50
2022-09-15T21:38:59.935Z,99748.88
2022-09-15T21:41:31.787Z,99752.97
2022-09-15T21:44:01.909Z,99757.97
2022-09-15T21:46:33.631Z,99750.06
2022-09-15T21:49:06.524Z,99739.09
2022-09-15T21:51:36.326Z,99748.47
2022-09-15T21:54:06.760Z,99753.78
2022-09-15T21:56:36.592Z,99756.22
2022-09-15T21:59:08.195Z,99759.50
2022-09-15T22:01:38.247Z,99762.75
2022-09-15T22:04:11.903Z,99772.31
2022-09-15T22:06:44.844Z,99767.63
2022-09-15T22:09:18.063Z,99771.66
2022-09-15T22:11:49.099Z,99775.53
2022-09-15T22:14:21.453Z,99778.34
2022-09-15T22:16:51.954Z,99775.25
2022-09-15T22:19:24.646Z,99780.19
2022-09-15T22:21:55.537Z,99791.47
2022-09-15T22:24:26.251Z,99778.78
2022-09-15T22:26:56.538Z,99780.59
2022-09-15T22:29:26.688Z,99782.03
2022-09-15T22:31:57.176Z,99789.53
2022-09-15T22:34:30.112Z,99795.69
2022-09-15T22:37:00.403Z,99795.00
2022-09-15T22:39:57.425Z,99788.91
2022-09-15T22:42:20.523Z,99789.97
2022-09-15T22:44:50.598Z,99790.75
2022-09-15T22:47:20.579Z,99790.16
2022-09-15T22:49:52.949Z,99789.00
2022-09-15T22:52:23.022Z,99784.41
2022-09-15T22:54:52.903Z,99784.69
2022-09-15T22:57:22.684Z,99782.75
2022-09-15T22:59:52.734Z,99781.44
2022-09-15T23:02:23.341Z,99786.38
2022-09-15T23:04:57.515Z,99787.59
2022-09-15T23:07:29.583Z,99791.69
2022-09-15T23:10:01.429Z,99788.22
2022-09-15T23:12:37.344Z,99788.28
2022-09-15T23:15:12.009Z,99788.50
2022-09-15T23:17:44.457Z,99788.00
2022-09-15T23:20:17.997Z,99785.25
2022-09-15T23:22:49.110Z,99785.78
2022-09-15T23:25:20.566Z,99786.91
2022-09-15T23:27:52.537Z,99788.28
2022-09-15T23:30:25.038Z,99781.44
2022-09-15T23:32:56.542Z,99791.09
2022-09-15T23:35:32.525Z,99792.34
2022-09-15T23:38:04.075Z,99791.56
2022-09-15T23:40:35.360Z,99791.09
2022-09-15T23:43:06.970Z,99788.22
2022-09-15T23:45:38.245Z,99786.78
2022-09-15T23:48:11.488Z,99791.56
2022-09-15T23:50:47.229Z,99792.84
2022-09-15T23:53:18.782Z,99789.81
2022-09-15T23:55:51.300Z,99798.00
2022-09-15T23:58:23.606Z,99790.88
